sensor_id;sensor_type;location;lat;lon;timestamp;P1;durP1;ratioP1;P2;durP2;ratioP2
9968;SDS011;5025;48.890;9.278;2023-03-11T00:00:55;1.57;;;1.40;;
9968;SDS011;5025;48.890;9.278;2023-03-11T00:03:20;1.37;;;1.30;;
9968;SDS011;5025;48.890;9.278;2023-03-11T00:05:49;1.47;;;1.20;;
9968;SDS011;5025;48.890;9.278;2023-03-11T00:08:17;1.00;;;1.00;;
9968;SDS011;5025;48.890;9.278;2023-03-11T00:10:44;1.00;;;1.00;;
9968;SDS011;5025;48.890;9.278;2023-03-11T00:13:12;1.10;;;1.10;;
9968;SDS011;5025;48.890;9.278;2023-03-11T00:15:39;1.10;;;1.10;;
9968;SDS011;5025;48.890;9.278;2023-03-11T00:18:06;1.27;;;1.17;;
9968;SDS011;5025;48.890;9.278;2023-03-11T00:20:32;1.20;;;1.20;;
9968;SDS011;5025;48.890;9.278;2023-03-11T00:23:01;1.10;;;1.10;;
9968;SDS011;5025;48.890;9.278;2023-03-11T00:25:28;2.43;;;1.10;;
9968;SDS011;5025;48.890;9.278;2023-03-11T00:27:55;1.23;;;1.20;;
9968;SDS011;5025;48.890;9.278;2023-03-11T00:30:20;1.30;;;1.20;;
9968;SDS011;5025;48.890;9.278;2023-03-11T00:32:49;1.00;;;1.00;;
9968;SDS011;5025;48.890;9.278;2023-03-11T00:35:18;1.40;;;1.30;;
9968;SDS011;5025;48.890;9.278;2023-03-11T00:37:45;1.67;;;1.40;;
9968;SDS011;5025;48.890;9.278;2023-03-11T00:40:16;1.40;;;1.30;;
9968;SDS011;5025;48.890;9.278;2023-03-11T00:42:43;1.80;;;1.50;;
9968;SDS011;5025;48.890;9.278;2023-03-11T00:45:08;1.23;;;1.10;;
9968;SDS011;5025;48.890;9.278;2023-03-11T00:47:34;1.53;;;1.37;;
9968;SDS011;5025;48.890;9.278;2023-03-11T00:50:00;1.50;;;1.40;;
9968;SDS011;5025;48.890;9.278;2023-03-11T00:52:25;1.80;;;1.20;;
9968;SDS011;5025;48.890;9.278;2023-03-11T00:54:50;1.40;;;1.30;;
9968;SDS011;5025;48.890;9.278;2023-03-11T00:57:16;1.63;;;1.53;;
9968;SDS011;5025;48.890;9.278;2023-03-11T00:59:41;1.47;;;1.37;;
9968;SDS011;5025;48.890;9.278;2023-03-11T01:02:06;1.40;;;1.30;;
9968;SDS011;5025;48.890;9.278;2023-03-11T01:04:31;1.60;;;1.50;;
9968;SDS011;5025;48.890;9.278;2023-03-11T01:06:57;2.00;;;1.67;;
9968;SDS011;5025;48.890;9.278;2023-03-11T01:09:22;1.40;;;1.40;;
9968;SDS011;5025;48.890;9.278;2023-03-11T01:11:47;1.47;;;1.37;;
9968;SDS011;5025;48.890;9.278;2023-03-11T01:14:13;1.40;;;1.30;;
9968;SDS011;5025;48.890;9.278;2023-03-11T01:16:38;1.30;;;1.20;;
9968;SDS011;5025;48.890;9.278;2023-03-11T01:19:04;2.57;;;1.50;;
9968;SDS011;5025;48.890;9.278;2023-03-11T01:21:29;2.33;;;1.50;;
9968;SDS011;5025;48.890;9.278;2023-03-11T01:23:54;1.60;;;1.50;;
9968;SDS011;5025;48.890;9.278;2023-03-11T01:26:19;1.37;;;1.37;;
9968;SDS011;5025;48.890;9.278;2023-03-11T01:28:45;1.37;;;1.30;;
9968;SDS011;5025;48.890;9.278;2023-03-11T01:31:11;1.30;;;1.30;;
9968;SDS011;5025;48.890;9.278;2023-03-11T01:33:36;2.77;;;1.30;;
9968;SDS011;5025;48.890;9.278;2023-03-11T01:36:02;1.60;;;1.50;;
9968;SDS011;5025;48.890;9.278;2023-03-11T01:38:28;2.30;;;1.40;;
9968;SDS011;5025;48.890;9.278;2023-03-11T01:40:53;1.40;;;1.40;;
9968;SDS011;5025;48.890;9.278;2023-03-11T01:43:38;1.50;;;1.40;;
9968;SDS011;5025;48.890;9.278;2023-03-11T01:46:20;1.77;;;1.40;;
9968;SDS011;5025;48.890;9.278;2023-03-11T01:48:53;1.47;;;1.30;;
9968;SDS011;5025;48.890;9.278;2023-03-11T01:51:26;1.17;;;1.17;;
9968;SDS011;5025;48.890;9.278;2023-03-11T01:54:03;1.10;;;1.00;;
9968;SDS011;5025;48.890;9.278;2023-03-11T01:56:31;0.77;;;0.73;;
9968;SDS011;5025;48.890;9.278;2023-03-11T01:58:57;0.90;;;0.90;;
9968;SDS011;5025;48.890;9.278;2023-03-11T02:01:22;0.87;;;0.87;;
9968;SDS011;5025;48.890;9.278;2023-03-11T02:03:48;1.13;;;1.10;;
9968;SDS011;5025;48.890;9.278;2023-03-11T02:06:15;0.90;;;0.90;;
9968;SDS011;5025;48.890;9.278;2023-03-11T02:08:43;1.43;;;0.70;;
9968;SDS011;5025;48.890;9.278;2023-03-11T02:11:11;1.10;;;1.00;;
9968;SDS011;5025;48.890;9.278;2023-03-11T02:13:40;1.00;;;0.90;;
9968;SDS011;5025;48.890;9.278;2023-03-11T02:16:08;1.10;;;1.00;;
9968;SDS011;5025;48.890;9.278;2023-03-11T02:18:33;1.17;;;1.07;;
9968;SDS011;5025;48.890;9.278;2023-03-11T02:21:03;0.90;;;0.90;;
9968;SDS011;5025;48.890;9.278;2023-03-11T02:23:42;1.03;;;0.90;;
9968;SDS011;5025;48.890;9.278;2023-03-11T02:26:26;1.07;;;1.07;;
9968;SDS011;5025;48.890;9.278;2023-03-11T02:29:00;1.27;;;1.10;;
9968;SDS011;5025;48.890;9.278;2023-03-11T02:31:28;1.20;;;1.10;;
9968;SDS011;5025;48.890;9.278;2023-03-11T02:33:55;1.10;;;1.10;;
9968;SDS011;5025;48.890;9.278;2023-03-11T02:36:29;1.70;;;1.00;;
9968;SDS011;5025;48.890;9.278;2023-03-11T02:39:01;1.57;;;1.10;;
9968;SDS011;5025;48.890;9.278;2023-03-11T02:41:27;1.43;;;1.10;;
9968;SDS011;5025;48.890;9.278;2023-03-11T02:43:54;1.70;;;1.20;;
9968;SDS011;5025;48.890;9.278;2023-03-11T02:46:20;1.80;;;1.37;;
9968;SDS011;5025;48.890;9.278;2023-03-11T02:48:45;1.30;;;1.20;;
9968;SDS011;5025;48.890;9.278;2023-03-11T02:51:12;1.30;;;1.20;;
9968;SDS011;5025;48.890;9.278;2023-03-11T02:53:39;2.23;;;1.30;;
9968;SDS011;5025;48.890;9.278;2023-03-11T02:56:10;1.70;;;1.10;;
9968;SDS011;5025;48.890;9.278;2023-03-11T02:58:35;1.10;;;1.10;;
9968;SDS011;5025;48.890;9.278;2023-03-11T03:01:00;1.83;;;1.13;;
9968;SDS011;5025;48.890;9.278;2023-03-11T03:03:25;1.43;;;1.20;;
9968;SDS011;5025;48.890;9.278;2023-03-11T03:05:51;2.73;;;1.30;;
9968;SDS011;5025;48.890;9.278;2023-03-11T03:08:16;1.37;;;1.20;;
9968;SDS011;5025;48.890;9.278;2023-03-11T03:10:41;1.83;;;1.13;;
9968;SDS011;5025;48.890;9.278;2023-03-11T03:13:06;1.80;;;1.03;;
9968;SDS011;5025;48.890;9.278;2023-03-11T03:15:32;1.93;;;1.20;;
9968;SDS011;5025;48.890;9.278;2023-03-11T03:17:58;1.37;;;1.07;;
9968;SDS011;5025;48.890;9.278;2023-03-11T03:20:23;1.53;;;1.13;;
9968;SDS011;5025;48.890;9.278;2023-03-11T03:22:50;1.80;;;1.37;;
9968;SDS011;5025;48.890;9.278;2023-03-11T03:25:16;1.67;;;1.30;;
9968;SDS011;5025;48.890;9.278;2023-03-11T03:27:41;0.93;;;0.90;;
9968;SDS011;5025;48.890;9.278;2023-03-11T03:30:07;2.17;;;1.10;;
9968;SDS011;5025;48.890;9.278;2023-03-11T03:32:34;1.43;;;1.10;;
9968;SDS011;5025;48.890;9.278;2023-03-11T03:35:00;3.03;;;1.00;;
9968;SDS011;5025;48.890;9.278;2023-03-11T03:37:26;2.93;;;1.33;;
9968;SDS011;5025;48.890;9.278;2023-03-11T03:39:53;2.97;;;1.20;;
9968;SDS011;5025;48.890;9.278;2023-03-11T03:42:18;2.60;;;1.13;;
9968;SDS011;5025;48.890;9.278;2023-03-11T03:44:44;1.70;;;1.10;;
9968;SDS011;5025;48.890;9.278;2023-03-11T03:47:10;1.20;;;1.10;;
9968;SDS011;5025;48.890;9.278;2023-03-11T03:49:36;2.43;;;1.33;;
9968;SDS011;5025;48.890;9.278;2023-03-11T03:52:01;1.93;;;1.00;;
9968;SDS011;5025;48.890;9.278;2023-03-11T03:54:28;1.03;;;1.00;;
9968;SDS011;5025;48.890;9.278;2023-03-11T03:56:53;2.23;;;1.10;;
9968;SDS011;5025;48.890;9.278;2023-03-11T03:59:19;2.33;;;1.27;;
9968;SDS011;5025;48.890;9.278;2023-03-11T04:01:44;1.73;;;1.23;;
9968;SDS011;5025;48.890;9.278;2023-03-11T04:04:09;2.30;;;1.20;;
9968;SDS011;5025;48.890;9.278;2023-03-11T04:06:34;1.00;;;0.93;;
9968;SDS011;5025;48.890;9.278;2023-03-11T04:09:00;2.37;;;1.30;;
9968;SDS011;5025;48.890;9.278;2023-03-11T04:11:25;3.43;;;1.20;;
9968;SDS011;5025;48.890;9.278;2023-03-11T04:13:50;4.13;;;1.17;;
9968;SDS011;5025;48.890;9.278;2023-03-11T04:16:17;1.63;;;1.00;;
9968;SDS011;5025;48.890;9.278;2023-03-11T04:18:44;3.53;;;1.20;;
9968;SDS011;5025;48.890;9.278;2023-03-11T04:21:10;2.57;;;1.10;;
9968;SDS011;5025;48.890;9.278;2023-03-11T04:23:35;2.90;;;1.27;;
9968;SDS011;5025;48.890;9.278;2023-03-11T04:26:01;2.47;;;0.90;;
9968;SDS011;5025;48.890;9.278;2023-03-11T04:28:27;5.40;;;1.20;;
9968;SDS011;5025;48.890;9.278;2023-03-11T04:30:52;2.40;;;1.00;;
9968;SDS011;5025;48.890;9.278;2023-03-11T04:33:17;2.37;;;0.90;;
9968;SDS011;5025;48.890;9.278;2023-03-11T04:35:43;1.07;;;1.00;;
9968;SDS011;5025;48.890;9.278;2023-03-11T04:38:08;4.07;;;1.10;;
9968;SDS011;5025;48.890;9.278;2023-03-11T04:40:35;1.70;;;1.13;;
9968;SDS011;5025;48.890;9.278;2023-03-11T04:43:01;1.70;;;1.13;;
9968;SDS011;5025;48.890;9.278;2023-03-11T04:45:26;2.80;;;1.07;;
9968;SDS011;5025;48.890;9.278;2023-03-11T04:47:51;1.03;;;0.90;;
9968;SDS011;5025;48.890;9.278;2023-03-11T04:50:17;1.10;;;1.00;;
9968;SDS011;5025;48.890;9.278;2023-03-11T04:52:43;3.43;;;1.20;;
9968;SDS011;5025;48.890;9.278;2023-03-11T04:55:09;1.83;;;1.20;;
9968;SDS011;5025;48.890;9.278;2023-03-11T04:57:35;1.70;;;1.00;;
9968;SDS011;5025;48.890;9.278;2023-03-11T05:00:01;1.60;;;1.20;;
9968;SDS011;5025;48.890;9.278;2023-03-11T05:02:30;2.90;;;1.40;;
9968;SDS011;5025;48.890;9.278;2023-03-11T05:04:55;2.13;;;1.70;;
9968;SDS011;5025;48.890;9.278;2023-03-11T05:07:20;2.53;;;1.40;;
9968;SDS011;5025;48.890;9.278;2023-03-11T05:09:45;1.83;;;1.37;;
9968;SDS011;5025;48.890;9.278;2023-03-11T05:12:11;3.33;;;1.90;;
9968;SDS011;5025;48.890;9.278;2023-03-11T05:14:36;2.40;;;1.40;;
9968;SDS011;5025;48.890;9.278;2023-03-11T05:17:01;2.63;;;1.43;;
9968;SDS011;5025;48.890;9.278;2023-03-11T05:19:27;3.47;;;1.77;;
9968;SDS011;5025;48.890;9.278;2023-03-11T05:21:55;1.57;;;1.30;;
9968;SDS011;5025;48.890;9.278;2023-03-11T05:24:20;3.10;;;1.57;;
9968;SDS011;5025;48.890;9.278;2023-03-11T05:26:46;2.50;;;1.30;;
9968;SDS011;5025;48.890;9.278;2023-03-11T05:29:11;2.10;;;1.40;;
9968;SDS011;5025;48.890;9.278;2023-03-11T05:31:36;5.60;;;1.80;;
9968;SDS011;5025;48.890;9.278;2023-03-11T05:34:02;2.20;;;1.50;;
9968;SDS011;5025;48.890;9.278;2023-03-11T05:36:28;5.90;;;1.90;;
9968;SDS011;5025;48.890;9.278;2023-03-11T05:38:53;2.40;;;1.53;;
9968;SDS011;5025;48.890;9.278;2023-03-11T05:41:18;1.87;;;1.70;;
9968;SDS011;5025;48.890;9.278;2023-03-11T05:43:44;3.10;;;1.50;;
9968;SDS011;5025;48.890;9.278;2023-03-11T05:46:10;2.47;;;1.40;;
9968;SDS011;5025;48.890;9.278;2023-03-11T05:48:35;3.67;;;1.63;;
9968;SDS011;5025;48.890;9.278;2023-03-11T05:51:05;5.23;;;1.63;;
9968;SDS011;5025;48.890;9.278;2023-03-11T05:53:34;2.20;;;2.00;;
9968;SDS011;5025;48.890;9.278;2023-03-11T05:55:59;3.13;;;1.70;;
9968;SDS011;5025;48.890;9.278;2023-03-11T05:58:26;2.83;;;1.70;;
9968;SDS011;5025;48.890;9.278;2023-03-11T06:00:52;2.97;;;1.67;;
9968;SDS011;5025;48.890;9.278;2023-03-11T06:03:17;1.40;;;1.30;;
9968;SDS011;5025;48.890;9.278;2023-03-11T06:05:46;2.70;;;1.80;;
9968;SDS011;5025;48.890;9.278;2023-03-11T06:08:12;2.60;;;1.70;;
9968;SDS011;5025;48.890;9.278;2023-03-11T06:10:38;2.77;;;1.80;;
9968;SDS011;5025;48.890;9.278;2023-03-11T06:13:03;4.03;;;1.60;;
9968;SDS011;5025;48.890;9.278;2023-03-11T06:15:29;2.97;;;1.53;;
9968;SDS011;5025;48.890;9.278;2023-03-11T06:17:56;3.30;;;1.43;;
9968;SDS011;5025;48.890;9.278;2023-03-11T06:20:21;3.40;;;1.60;;
9968;SDS011;5025;48.890;9.278;2023-03-11T06:22:47;3.60;;;1.50;;
9968;SDS011;5025;48.890;9.278;2023-03-11T06:25:13;3.60;;;1.50;;
9968;SDS011;5025;48.890;9.278;2023-03-11T06:27:38;4.53;;;1.70;;
9968;SDS011;5025;48.890;9.278;2023-03-11T06:30:04;3.20;;;1.30;;
9968;SDS011;5025;48.890;9.278;2023-03-11T06:32:30;3.73;;;1.83;;
9968;SDS011;5025;48.890;9.278;2023-03-11T06:34:55;3.43;;;1.87;;
9968;SDS011;5025;48.890;9.278;2023-03-11T06:37:20;3.10;;;1.63;;
9968;SDS011;5025;48.890;9.278;2023-03-11T06:39:50;4.27;;;1.80;;
9968;SDS011;5025;48.890;9.278;2023-03-11T06:42:16;4.60;;;1.67;;
9968;SDS011;5025;48.890;9.278;2023-03-11T06:44:41;2.90;;;1.60;;
9968;SDS011;5025;48.890;9.278;2023-03-11T06:47:06;3.33;;;1.57;;
9968;SDS011;5025;48.890;9.278;2023-03-11T06:49:32;3.67;;;1.50;;
9968;SDS011;5025;48.890;9.278;2023-03-11T06:51:57;3.63;;;2.50;;
9968;SDS011;5025;48.890;9.278;2023-03-11T06:54:22;4.80;;;1.97;;
9968;SDS011;5025;48.890;9.278;2023-03-11T06:56:47;2.20;;;1.50;;
9968;SDS011;5025;48.890;9.278;2023-03-11T06:59:13;4.37;;;1.40;;
9968;SDS011;5025;48.890;9.278;2023-03-11T07:01:39;3.97;;;1.77;;
9968;SDS011;5025;48.890;9.278;2023-03-11T07:04:04;3.10;;;1.50;;
9968;SDS011;5025;48.890;9.278;2023-03-11T07:06:30;4.50;;;1.60;;
9968;SDS011;5025;48.890;9.278;2023-03-11T07:08:55;4.53;;;1.60;;
9968;SDS011;5025;48.890;9.278;2023-03-11T07:11:21;2.63;;;1.67;;
9968;SDS011;5025;48.890;9.278;2023-03-11T07:13:47;2.80;;;1.43;;
9968;SDS011;5025;48.890;9.278;2023-03-11T07:16:13;3.90;;;1.57;;
9968;SDS011;5025;48.890;9.278;2023-03-11T07:18:44;4.10;;;1.73;;
9968;SDS011;5025;48.890;9.278;2023-03-11T07:21:12;4.43;;;1.53;;
9968;SDS011;5025;48.890;9.278;2023-03-11T07:23:39;4.30;;;1.47;;
9968;SDS011;5025;48.890;9.278;2023-03-11T07:26:06;3.30;;;1.53;;
9968;SDS011;5025;48.890;9.278;2023-03-11T07:28:32;3.53;;;1.60;;
9968;SDS011;5025;48.890;9.278;2023-03-11T07:30:58;6.33;;;1.53;;
9968;SDS011;5025;48.890;9.278;2023-03-11T07:33:23;4.50;;;1.83;;
9968;SDS011;5025;48.890;9.278;2023-03-11T07:35:49;4.33;;;1.80;;
9968;SDS011;5025;48.890;9.278;2023-03-11T07:38:15;3.77;;;1.60;;
9968;SDS011;5025;48.890;9.278;2023-03-11T07:40:41;3.50;;;1.70;;
9968;SDS011;5025;48.890;9.278;2023-03-11T07:43:07;3.57;;;1.50;;
9968;SDS011;5025;48.890;9.278;2023-03-11T07:45:33;6.20;;;1.60;;
9968;SDS011;5025;48.890;9.278;2023-03-11T07:47:59;4.43;;;1.40;;
9968;SDS011;5025;48.890;9.278;2023-03-11T07:50:24;3.67;;;1.47;;
9968;SDS011;5025;48.890;9.278;2023-03-11T07:52:50;2.73;;;1.40;;
9968;SDS011;5025;48.890;9.278;2023-03-11T07:55:15;2.20;;;1.20;;
9968;SDS011;5025;48.890;9.278;2023-03-11T07:57:40;6.50;;;1.50;;
9968;SDS011;5025;48.890;9.278;2023-03-11T08:00:06;5.07;;;1.53;;
9968;SDS011;5025;48.890;9.278;2023-03-11T08:02:32;3.53;;;1.70;;
9968;SDS011;5025;48.890;9.278;2023-03-11T08:04:58;4.47;;;1.40;;
9968;SDS011;5025;48.890;9.278;2023-03-11T08:07:23;4.07;;;1.50;;
9968;SDS011;5025;48.890;9.278;2023-03-11T08:09:48;5.20;;;1.57;;
9968;SDS011;5025;48.890;9.278;2023-03-11T08:12:14;2.97;;;1.50;;
9968;SDS011;5025;48.890;9.278;2023-03-11T08:14:40;4.73;;;1.90;;
9968;SDS011;5025;48.890;9.278;2023-03-11T08:17:07;2.47;;;1.53;;
9968;SDS011;5025;48.890;9.278;2023-03-11T08:19:33;3.33;;;1.40;;
9968;SDS011;5025;48.890;9.278;2023-03-11T08:22:00;5.30;;;2.10;;
9968;SDS011;5025;48.890;9.278;2023-03-11T08:24:28;3.10;;;1.50;;
9968;SDS011;5025;48.890;9.278;2023-03-11T08:26:53;3.93;;;1.63;;
9968;SDS011;5025;48.890;9.278;2023-03-11T08:29:21;6.17;;;2.10;;
9968;SDS011;5025;48.890;9.278;2023-03-11T08:31:46;4.40;;;2.60;;
9968;SDS011;5025;48.890;9.278;2023-03-11T08:34:12;3.93;;;1.83;;
9968;SDS011;5025;48.890;9.278;2023-03-11T08:36:38;3.20;;;1.47;;
9968;SDS011;5025;48.890;9.278;2023-03-11T08:39:03;3.83;;;1.67;;
9968;SDS011;5025;48.890;9.278;2023-03-11T08:41:29;4.00;;;1.50;;
9968;SDS011;5025;48.890;9.278;2023-03-11T08:43:54;2.73;;;1.23;;
9968;SDS011;5025;48.890;9.278;2023-03-11T08:46:22;2.23;;;1.30;;
9968;SDS011;5025;48.890;9.278;2023-03-11T08:48:52;5.37;;;1.70;;
9968;SDS011;5025;48.890;9.278;2023-03-11T08:51:18;3.33;;;1.60;;
9968;SDS011;5025;48.890;9.278;2023-03-11T08:53:44;2.67;;;1.30;;
9968;SDS011;5025;48.890;9.278;2023-03-11T08:56:10;2.37;;;1.30;;
9968;SDS011;5025;48.890;9.278;2023-03-11T08:58:35;1.67;;;1.50;;
9968;SDS011;5025;48.890;9.278;2023-03-11T09:01:00;2.47;;;1.20;;
9968;SDS011;5025;48.890;9.278;2023-03-11T09:03:26;3.17;;;1.57;;
9968;SDS011;5025;48.890;9.278;2023-03-11T09:05:58;2.93;;;1.50;;
9968;SDS011;5025;48.890;9.278;2023-03-11T09:08:24;4.93;;;2.10;;
9968;SDS011;5025;48.890;9.278;2023-03-11T09:10:50;2.20;;;1.77;;
9968;SDS011;5025;48.890;9.278;2023-03-11T09:13:15;1.60;;;1.23;;
9968;SDS011;5025;48.890;9.278;2023-03-11T09:15:41;1.50;;;1.07;;
9968;SDS011;5025;48.890;9.278;2023-03-11T09:18:06;1.50;;;1.30;;
9968;SDS011;5025;48.890;9.278;2023-03-11T09:20:33;1.60;;;1.17;;
9968;SDS011;5025;48.890;9.278;2023-03-11T09:23:01;2.43;;;1.40;;
9968;SDS011;5025;48.890;9.278;2023-03-11T09:25:26;1.37;;;1.23;;
9968;SDS011;5025;48.890;9.278;2023-03-11T09:27:52;1.90;;;1.40;;
9968;SDS011;5025;48.890;9.278;2023-03-11T09:30:17;1.63;;;1.20;;
9968;SDS011;5025;48.890;9.278;2023-03-11T09:32:42;1.97;;;1.40;;
9968;SDS011;5025;48.890;9.278;2023-03-11T09:35:07;4.20;;;1.77;;
9968;SDS011;5025;48.890;9.278;2023-03-11T09:37:33;5.43;;;2.00;;
9968;SDS011;5025;48.890;9.278;2023-03-11T09:39:59;2.33;;;1.90;;
9968;SDS011;5025;48.890;9.278;2023-03-11T09:42:39;2.33;;;1.70;;
9968;SDS011;5025;48.890;9.278;2023-03-11T09:45:18;1.97;;;1.50;;
9968;SDS011;5025;48.890;9.278;2023-03-11T09:50:58;1.87;;;1.40;;
9968;SDS011;5025;48.890;9.278;2023-03-11T09:56:07;1.93;;;1.30;;
9968;SDS011;5025;48.890;9.278;2023-03-11T09:58:47;2.73;;;1.27;;
9968;SDS011;5025;48.890;9.278;2023-03-11T10:01:25;1.67;;;1.10;;
9968;SDS011;5025;48.890;9.278;2023-03-11T10:03:55;3.23;;;1.40;;
9968;SDS011;5025;48.890;9.278;2023-03-11T10:06:25;2.07;;;1.40;;
9968;SDS011;5025;48.890;9.278;2023-03-11T10:23:05;2.33;;;1.70;;
9968;SDS011;5025;48.890;9.278;2023-03-11T10:26:02;4.07;;;1.50;;
9968;SDS011;5025;48.890;9.278;2023-03-11T10:28:38;3.13;;;1.10;;
9968;SDS011;5025;48.890;9.278;2023-03-11T10:31:17;1.20;;;1.10;;
9968;SDS011;5025;48.890;9.278;2023-03-11T10:33:54;1.37;;;1.10;;
9968;SDS011;5025;48.890;9.278;2023-03-11T10:36:24;2.17;;;1.10;;
9968;SDS011;5025;48.890;9.278;2023-03-11T10:38:58;1.90;;;0.80;;
9968;SDS011;5025;48.890;9.278;2023-03-11T10:44:09;1.87;;;1.17;;
9968;SDS011;5025;48.890;9.278;2023-03-11T10:46:39;1.63;;;1.20;;
9968;SDS011;5025;48.890;9.278;2023-03-11T10:49:09;2.20;;;0.83;;
9968;SDS011;5025;48.890;9.278;2023-03-11T10:51:37;1.30;;;0.93;;
9968;SDS011;5025;48.890;9.278;2023-03-11T10:54:04;1.20;;;1.00;;
9968;SDS011;5025;48.890;9.278;2023-03-11T10:56:39;2.30;;;1.03;;
9968;SDS011;5025;48.890;9.278;2023-03-11T10:59:09;1.23;;;0.93;;
9968;SDS011;5025;48.890;9.278;2023-03-11T11:01:52;2.63;;;1.07;;
9968;SDS011;5025;48.890;9.278;2023-03-11T11:04:24;2.27;;;1.10;;
9968;SDS011;5025;48.890;9.278;2023-03-11T11:06:52;1.07;;;0.97;;
9968;SDS011;5025;48.890;9.278;2023-03-11T11:09:19;1.03;;;0.90;;
9968;SDS011;5025;48.890;9.278;2023-03-11T11:17:18;2.87;;;1.27;;
9968;SDS011;5025;48.890;9.278;2023-03-11T11:20:01;3.63;;;1.50;;
9968;SDS011;5025;48.890;9.278;2023-03-11T11:22:37;1.87;;;1.20;;
9968;SDS011;5025;48.890;9.278;2023-03-11T11:25:22;2.60;;;1.20;;
9968;SDS011;5025;48.890;9.278;2023-03-11T11:28:00;2.17;;;1.20;;
9968;SDS011;5025;48.890;9.278;2023-03-11T11:30:51;1.67;;;1.43;;
9968;SDS011;5025;48.890;9.278;2023-03-11T11:33:21;3.33;;;1.90;;
9968;SDS011;5025;48.890;9.278;2023-03-11T11:35:50;2.87;;;1.50;;
9968;SDS011;5025;48.890;9.278;2023-03-11T11:38:18;2.87;;;1.40;;
9968;SDS011;5025;48.890;9.278;2023-03-11T11:40:48;3.47;;;1.60;;
9968;SDS011;5025;48.890;9.278;2023-03-11T11:43:15;2.90;;;1.40;;
9968;SDS011;5025;48.890;9.278;2023-03-11T11:45:56;1.90;;;1.37;;
9968;SDS011;5025;48.890;9.278;2023-03-11T11:48:42;4.20;;;1.80;;
9968;SDS011;5025;48.890;9.278;2023-03-11T11:51:20;3.47;;;1.40;;
9968;SDS011;5025;48.890;9.278;2023-03-11T11:53:59;1.87;;;1.07;;
9968;SDS011;5025;48.890;9.278;2023-03-11T11:56:41;3.40;;;1.20;;
9968;SDS011;5025;48.890;9.278;2023-03-11T11:59:09;1.90;;;1.30;;
9968;SDS011;5025;48.890;9.278;2023-03-11T12:01:48;1.20;;;1.10;;
9968;SDS011;5025;48.890;9.278;2023-03-11T12:04:23;1.00;;;0.90;;
9968;SDS011;5025;48.890;9.278;2023-03-11T12:06:56;1.60;;;1.00;;
9968;SDS011;5025;48.890;9.278;2023-03-11T12:09:26;0.80;;;0.80;;
9968;SDS011;5025;48.890;9.278;2023-03-11T12:12:07;1.57;;;1.00;;
9968;SDS011;5025;48.890;9.278;2023-03-11T12:14:55;1.10;;;1.00;;
9968;SDS011;5025;48.890;9.278;2023-03-11T12:17:26;0.77;;;0.77;;
9968;SDS011;5025;48.890;9.278;2023-03-11T12:19:59;1.40;;;1.00;;
9968;SDS011;5025;48.890;9.278;2023-03-11T12:22:37;2.30;;;1.10;;
9968;SDS011;5025;48.890;9.278;2023-03-11T12:30:42;3.03;;;1.70;;
9968;SDS011;5025;48.890;9.278;2023-03-11T12:33:16;2.47;;;1.30;;
9968;SDS011;5025;48.890;9.278;2023-03-11T12:35:49;1.47;;;1.17;;
9968;SDS011;5025;48.890;9.278;2023-03-11T12:38:20;1.70;;;1.20;;
9968;SDS011;5025;48.890;9.278;2023-03-11T12:41:01;2.23;;;1.20;;
9968;SDS011;5025;48.890;9.278;2023-03-11T12:45:58;1.77;;;1.20;;
9968;SDS011;5025;48.890;9.278;2023-03-11T12:48:35;2.13;;;1.20;;
9968;SDS011;5025;48.890;9.278;2023-03-11T12:51:06;0.93;;;0.90;;
9968;SDS011;5025;48.890;9.278;2023-03-11T12:53:55;0.93;;;0.83;;
9968;SDS011;5025;48.890;9.278;2023-03-11T13:01:46;1.57;;;0.90;;
9968;SDS011;5025;48.890;9.278;2023-03-11T13:17:42;1.57;;;1.27;;
9968;SDS011;5025;48.890;9.278;2023-03-11T13:26:00;1.73;;;1.00;;
9968;SDS011;5025;48.890;9.278;2023-03-11T13:31:18;1.60;;;1.17;;
9968;SDS011;5025;48.890;9.278;2023-03-11T13:33:55;1.10;;;1.00;;
9968;SDS011;5025;48.890;9.278;2023-03-11T13:36:40;1.37;;;1.00;;
9968;SDS011;5025;48.890;9.278;2023-03-11T13:41:53;1.43;;;1.20;;
9968;SDS011;5025;48.890;9.278;2023-03-11T13:44:22;2.20;;;1.00;;
9968;SDS011;5025;48.890;9.278;2023-03-11T13:46:55;0.97;;;0.80;;
9968;SDS011;5025;48.890;9.278;2023-03-11T13:49:31;1.07;;;0.97;;
9968;SDS011;5025;48.890;9.278;2023-03-11T13:52:17;1.23;;;0.90;;
9968;SDS011;5025;48.890;9.278;2023-03-11T13:55:05;1.00;;;1.00;;
9968;SDS011;5025;48.890;9.278;2023-03-11T13:57:55;1.33;;;0.97;;
9968;SDS011;5025;48.890;9.278;2023-03-11T14:00:22;3.50;;;1.10;;
9968;SDS011;5025;48.890;9.278;2023-03-11T14:02:50;1.47;;;1.13;;
9968;SDS011;5025;48.890;9.278;2023-03-11T14:05:23;2.70;;;1.13;;
9968;SDS011;5025;48.890;9.278;2023-03-11T14:07:54;1.00;;;1.00;;
9968;SDS011;5025;48.890;9.278;2023-03-11T14:10:20;1.97;;;1.70;;
9968;SDS011;5025;48.890;9.278;2023-03-11T14:12:48;2.00;;;1.40;;
9968;SDS011;5025;48.890;9.278;2023-03-11T14:15:21;2.60;;;1.30;;
9968;SDS011;5025;48.890;9.278;2023-03-11T14:17:49;2.90;;;1.20;;
9968;SDS011;5025;48.890;9.278;2023-03-11T14:22:43;1.17;;;1.03;;
9968;SDS011;5025;48.890;9.278;2023-03-11T14:25:13;2.00;;;1.47;;
9968;SDS011;5025;48.890;9.278;2023-03-11T14:27:44;1.80;;;1.13;;
9968;SDS011;5025;48.890;9.278;2023-03-11T14:30:17;3.00;;;1.40;;
9968;SDS011;5025;48.890;9.278;2023-03-11T14:32:54;1.37;;;1.27;;
9968;SDS011;5025;48.890;9.278;2023-03-11T14:35:23;1.57;;;1.33;;
9968;SDS011;5025;48.890;9.278;2023-03-11T14:37:49;2.20;;;1.00;;
9968;SDS011;5025;48.890;9.278;2023-03-11T14:43:06;2.00;;;1.30;;
9968;SDS011;5025;48.890;9.278;2023-03-11T14:45:34;1.63;;;1.30;;
9968;SDS011;5025;48.890;9.278;2023-03-11T14:50:42;1.93;;;1.00;;
9968;SDS011;5025;48.890;9.278;2023-03-11T14:55:43;1.13;;;0.97;;
9968;SDS011;5025;48.890;9.278;2023-03-11T15:01:09;1.27;;;1.17;;
9968;SDS011;5025;48.890;9.278;2023-03-11T15:03:50;1.07;;;1.07;;
9968;SDS011;5025;48.890;9.278;2023-03-11T15:06:23;1.20;;;0.80;;
9968;SDS011;5025;48.890;9.278;2023-03-11T15:08:54;1.10;;;1.00;;
9968;SDS011;5025;48.890;9.278;2023-03-11T15:11:24;2.17;;;1.30;;
9968;SDS011;5025;48.890;9.278;2023-03-11T15:13:52;2.70;;;1.20;;
9968;SDS011;5025;48.890;9.278;2023-03-11T15:16:31;1.33;;;1.10;;
9968;SDS011;5025;48.890;9.278;2023-03-11T15:19:00;1.93;;;1.07;;
9968;SDS011;5025;48.890;9.278;2023-03-11T15:21:49;0.90;;;0.90;;
9968;SDS011;5025;48.890;9.278;2023-03-11T15:24:19;1.10;;;1.00;;
9968;SDS011;5025;48.890;9.278;2023-03-11T15:26:52;2.97;;;1.40;;
9968;SDS011;5025;48.890;9.278;2023-03-11T15:29:29;2.10;;;1.30;;
9968;SDS011;5025;48.890;9.278;2023-03-11T15:31:55;1.37;;;1.10;;
9968;SDS011;5025;48.890;9.278;2023-03-11T15:39:20;1.47;;;1.10;;
9968;SDS011;5025;48.890;9.278;2023-03-11T15:41:58;1.57;;;1.10;;
9968;SDS011;5025;48.890;9.278;2023-03-11T15:47:16;1.50;;;1.30;;
9968;SDS011;5025;48.890;9.278;2023-03-11T15:49:44;2.47;;;1.10;;
9968;SDS011;5025;48.890;9.278;2023-03-11T15:52:10;1.63;;;1.10;;
9968;SDS011;5025;48.890;9.278;2023-03-11T15:54:35;2.10;;;1.20;;
9968;SDS011;5025;48.890;9.278;2023-03-11T15:57:03;2.53;;;1.33;;
9968;SDS011;5025;48.890;9.278;2023-03-11T15:59:31;1.70;;;0.97;;
9968;SDS011;5025;48.890;9.278;2023-03-11T16:01:58;1.30;;;1.20;;
9968;SDS011;5025;48.890;9.278;2023-03-11T16:04:24;1.70;;;1.10;;
9968;SDS011;5025;48.890;9.278;2023-03-11T16:06:49;2.00;;;1.40;;
9968;SDS011;5025;48.890;9.278;2023-03-11T16:09:14;1.33;;;1.10;;
9968;SDS011;5025;48.890;9.278;2023-03-11T16:11:40;1.27;;;1.17;;
9968;SDS011;5025;48.890;9.278;2023-03-11T16:14:13;0.93;;;0.93;;
9968;SDS011;5025;48.890;9.278;2023-03-11T16:16:41;1.53;;;1.00;;
9968;SDS011;5025;48.890;9.278;2023-03-11T16:19:07;1.10;;;1.00;;
9968;SDS011;5025;48.890;9.278;2023-03-11T16:21:34;1.10;;;0.90;;
9968;SDS011;5025;48.890;9.278;2023-03-11T16:24:04;2.47;;;1.20;;
9968;SDS011;5025;48.890;9.278;2023-03-11T16:26:30;0.93;;;0.90;;
9968;SDS011;5025;48.890;9.278;2023-03-11T16:28:56;1.03;;;0.90;;
9968;SDS011;5025;48.890;9.278;2023-03-11T16:31:22;1.23;;;1.13;;
9968;SDS011;5025;48.890;9.278;2023-03-11T16:33:48;1.10;;;1.00;;
9968;SDS011;5025;48.890;9.278;2023-03-11T16:36:13;2.60;;;1.23;;
9968;SDS011;5025;48.890;9.278;2023-03-11T16:38:46;2.87;;;1.10;;
9968;SDS011;5025;48.890;9.278;2023-03-11T16:41:13;1.20;;;1.00;;
9968;SDS011;5025;48.890;9.278;2023-03-11T16:43:39;2.27;;;1.33;;
9968;SDS011;5025;48.890;9.278;2023-03-11T16:46:04;1.10;;;1.00;;
9968;SDS011;5025;48.890;9.278;2023-03-11T16:48:30;2.17;;;1.10;;
9968;SDS011;5025;48.890;9.278;2023-03-11T16:50:55;1.67;;;1.27;;